createdAt,value
2019-02-28T00:00:55.499Z,99114.70
2019-02-28T00:06:01.048Z,99104.27
2019-02-28T00:11:06.740Z,99103.20
2019-02-28T00:16:17.772Z,99089.33
2019-02-28T00:21:23.366Z,99077.30
2019-02-28T00:26:28.806Z,99078.33
2019-02-28T00:31:34.919Z,99068.33
2019-02-28T00:36:40.477Z,99055.50
2019-02-28T00:41:45.972Z,99040.18
2019-02-28T00:46:51.450Z,99030.06
2019-02-28T00:51:57.298Z,99021.03
2019-02-28T00:57:02.744Z,99007.69
2019-02-28T01:02:08.756Z,98994.35
2019-02-28T01:07:16.260Z,99003.92
2019-02-28T01:12:21.440Z,98980.89
2019-02-28T01:17:27.446Z,98960.94
2019-02-28T01:22:33.251Z,98954.73
2019-02-28T01:27:38.683Z,98954.06
2019-02-28T01:32:49.965Z,98943.97
2019-02-28T01:37:54.429Z,98947.70
2019-02-28T01:43:05.325Z,98948.23
2019-02-28T01:48:10.803Z,98933.95
2019-02-28T01:53:19.503Z,98934.78
2019-02-28T01:58:25.790Z,98927.79
2019-02-28T02:03:31.446Z,98919.45
2019-02-28T02:08:37.783Z,98920.80
2019-02-28T02:13:44.036Z,98916.64
2019-02-28T02:18:49.802Z,98910.09
2019-02-28T02:23:55.902Z,98896.87
2019-02-28T02:29:01.935Z,98888.23
2019-02-28T02:34:07.494Z,98883.95
2019-02-28T02:39:17.544Z,98871.55
2019-02-28T02:44:21.594Z,98872.15
2019-02-28T02:49:27.083Z,98854.98
2019-02-28T02:55:06.797Z,98843.35
2019-02-28T03:00:17.115Z,98850.94
2019-02-28T03:05:23.355Z,98842.56
2019-02-28T03:10:53.205Z,98838.47
2019-02-28T03:16:01.730Z,98838.05
2019-02-28T03:21:07.773Z,98841.22
2019-02-28T03:26:13.647Z,98841.21
2019-02-28T03:31:20.842Z,98833.78
2019-02-28T03:36:26.409Z,98826.97
2019-02-28T03:41:32.496Z,98813.16
2019-02-28T03:46:38.493Z,98812.72
2019-02-28T03:51:44.022Z,98804.73
2019-02-28T03:56:52.904Z,98804.44
2019-02-28T04:01:59.457Z,98792.32
2019-02-28T04:07:06.323Z,98803.35
2019-02-28T04:12:11.905Z,98786.80
2019-02-28T04:17:17.292Z,98783.52
2019-02-28T04:22:25.011Z,98769.31
2019-02-28T04:27:34.941Z,98762.41
2019-02-28T04:32:42.451Z,98758.22
2019-02-28T04:37:48.141Z,98750.93
2019-02-28T04:42:55.616Z,98754.27
2019-02-28T04:48:01.136Z,98746.41
2019-02-28T04:53:07.584Z,98741.69
2019-02-28T04:58:13.214Z,98749.31
2019-02-28T05:03:19.072Z,98742.02
2019-02-28T05:08:24.889Z,98743.01
2019-02-28T05:13:32.276Z,98737.56
2019-02-28T05:18:37.973Z,98728.80
2019-02-28T05:23:43.528Z,98716.67
2019-02-28T05:28:49.379Z,98702.72
2019-02-28T05:33:55.413Z,98700.31
2019-02-28T05:39:00.888Z,98701.05
2019-02-28T05:44:09.559Z,98699.31
2019-02-28T05:49:15.180Z,98708.56
2019-02-28T05:54:22.196Z,98714.00
2019-02-28T05:59:27.913Z,98710.19
2019-02-28T06:04:34.211Z,98701.09
2019-02-28T06:09:40.994Z,98701.98
2019-02-28T06:14:46.545Z,98684.73
2019-02-28T06:19:52.242Z,98680.28
2019-02-28T06:24:59.395Z,98669.37
2019-02-28T06:35:49.584Z,98666.61
2019-02-28T06:40:55.312Z,98658.11
2019-02-28T06:46:00.865Z,98659.47
2019-02-28T06:51:07.584Z,98678.53
2019-02-28T06:56:13.226Z,98675.55
2019-02-28T07:01:19.279Z,98672.45
2019-02-28T07:06:26.397Z,98669.38
2019-02-28T07:11:32.485Z,98671.25
2019-02-28T07:16:38.115Z,98673.55
2019-02-28T07:21:44.306Z,98679.38
2019-02-28T07:26:52.211Z,98684.08
2019-02-28T07:32:01.323Z,98684.19
2019-02-28T07:37:04.690Z,98679.05
2019-02-28T07:42:10.288Z,98678.69
2019-02-28T07:47:17.660Z,98677.99
2019-02-28T07:52:32.414Z,98675.25
2019-02-28T07:57:34.262Z,98666.67
2019-02-28T08:02:40.065Z,98676.66
2019-02-28T08:07:50.301Z,98684.17
2019-02-28T08:13:03.072Z,98685.70
2019-02-28T08:18:18.885Z,98681.61
2019-02-28T08:23:24.061Z,98676.94
2019-02-28T08:28:35.881Z,98684.38
2019-02-28T08:33:38.764Z,98671.00
2019-02-28T08:38:47.008Z,98673.16
2019-02-28T08:43:52.543Z,98675.48
2019-02-28T08:48:58.216Z,98688.73
2019-02-28T08:54:06.043Z,98694.61
2019-02-28T08:59:12.151Z,98679.92
2019-02-28T09:04:19.623Z,98689.06
2019-02-28T09:09:25.119Z,98686.38
2019-02-28T09:14:32.642Z,98679.26
2019-02-28T09:19:39.027Z,98673.64
2019-02-28T09:24:46.812Z,98672.11
2019-02-28T09:29:54.898Z,98653.55
2019-02-28T09:35:02.478Z,98661.95
2019-02-28T09:40:14.011Z,98654.52
2019-02-28T09:45:20.274Z,98654.92
2019-02-28T09:50:26.035Z,98663.64
2019-02-28T09:55:35.275Z,98673.18
2019-02-28T10:00:38.955Z,98676.10
2019-02-28T10:05:45.409Z,98662.22
2019-02-28T10:10:52.487Z,98657.81
2019-02-28T10:15:58.369Z,98664.31
2019-02-28T10:21:04.392Z,98653.33
2019-02-28T10:26:09.866Z,98651.35
2019-02-28T10:31:15.437Z,98642.89
2019-02-28T10:36:21.624Z,98645.26
2019-02-28T10:41:27.953Z,98646.47
2019-02-28T10:46:36.054Z,98659.20
2019-02-28T10:51:44.675Z,98643.06
2019-02-28T10:56:49.137Z,98639.84
2019-02-28T11:01:55.594Z,98649.99
2019-02-28T11:07:04.065Z,98637.81
2019-02-28T11:12:09.768Z,98635.44
2019-02-28T11:17:15.823Z,98649.84
2019-02-28T11:22:21.397Z,98643.23
2019-02-28T11:27:29.589Z,98649.33
2019-02-28T11:32:35.146Z,98651.37
2019-02-28T11:37:45.016Z,98663.56
2019-02-28T11:42:49.387Z,98653.05
2019-02-28T11:47:57.273Z,98660.26
2019-02-28T11:53:23.709Z,98654.34
2019-02-28T11:58:30.852Z,98659.83
2019-02-28T12:03:36.647Z,98650.67
2019-02-28T12:08:45.009Z,98644.08
2019-02-28T12:13:51.619Z,98645.25
2019-02-28T12:18:57.629Z,98637.36
2019-02-28T12:24:06.125Z,98630.26
2019-02-28T12:29:12.859Z,98634.73
2019-02-28T12:34:19.468Z,98639.50
2019-02-28T12:39:25.130Z,98613.57
2019-02-28T12:44:32.723Z,98627.16
2019-02-28T12:49:38.262Z,98618.88
2019-02-28T12:54:44.950Z,98620.55
2019-02-28T12:59:50.773Z,98614.41
2019-02-28T13:04:56.323Z,98628.13
2019-02-28T13:10:03.905Z,98617.33
2019-02-28T13:15:13.165Z,98616.91
2019-02-28T13:20:20.982Z,98615.66
2019-02-28T13:25:27.268Z,98625.12
2019-02-28T13:30:32.995Z,98615.64
2019-02-28T13:35:44.681Z,98620.38
2019-02-28T13:40:46.637Z,98604.45
2019-02-28T13:45:55.881Z,98607.69
2019-02-28T13:51:02.561Z,98598.20
2019-02-28T13:56:07.342Z,98605.66
2019-02-28T14:01:19.445Z,98602.10
2019-02-28T14:06:23.893Z,98603.28
2019-02-28T14:11:29.829Z,98600.55
2019-02-28T14:16:35.975Z,98599.91
2019-02-28T14:21:42.709Z,98595.16
2019-02-28T14:26:50.385Z,98592.11
2019-02-28T14:31:56.020Z,98585.31
2019-02-28T14:37:04.783Z,98589.23
2019-02-28T14:42:12.298Z,98593.78
2019-02-28T14:47:18.072Z,98599.13
2019-02-28T14:52:24.273Z,98598.17
2019-02-28T14:57:30.144Z,98593.27
2019-02-28T15:02:35.785Z,98595.80
2019-02-28T15:07:42.145Z,98594.23
2019-02-28T15:12:48.907Z,98598.80
2019-02-28T15:17:54.617Z,98599.05
2019-02-28T15:23:00.184Z,98596.97
2019-02-28T15:28:10.688Z,98599.72
2019-02-28T15:33:15.390Z,98592.83
2019-02-28T15:38:21.031Z,98595.31
2019-02-28T15:43:29.297Z,98595.25
2019-02-28T15:48:35.337Z,98595.95
2019-02-28T15:53:41.843Z,98588.59
2019-02-28T15:58:47.643Z,98608.52
2019-02-28T16:03:54.751Z,98602.35
2019-02-28T16:09:00.534Z,98600.05
2019-02-28T16:14:14.450Z,98580.61
2019-02-28T16:19:18.870Z,98597.06
2019-02-28T16:24:25.413Z,98580.58
2019-02-28T16:29:31.113Z,98586.66
2019-02-28T16:34:46.191Z,98585.88
2019-02-28T16:39:51.935Z,98590.80
2019-02-28T16:45:02.536Z,98585.32
2019-02-28T16:50:18.774Z,98585.55
2019-02-28T16:55:30.785Z,98593.88
2019-02-28T17:00:36.020Z,98598.15
2019-02-28T17:05:41.834Z,98606.22
2019-02-28T17:10:47.892Z,98600.06
2019-02-28T17:16:15.543Z,98608.06
2019-02-28T17:21:21.220Z,98615.60
2019-02-28T17:26:47.177Z,98619.44
2019-02-28T17:31:54.377Z,98632.34
2019-02-28T17:37:00.081Z,98631.61
2019-02-28T17:42:08.795Z,98642.18
2019-02-28T17:47:50.211Z,98635.01
2019-02-28T17:53:10.270Z,98640.98
2019-02-28T17:59:04.441Z,98660.88
2019-02-28T18:05:01.019Z,98657.19
2019-02-28T18:10:29.902Z,98660.80
2019-02-28T18:16:21.614Z,98668.77
2019-02-28T18:22:02.173Z,98655.85
2019-02-28T18:27:50.730Z,98660.61
2019-02-28T18:32:58.306Z,98672.91
2019-02-28T18:38:09.625Z,98681.69
2019-02-28T18:43:16.955Z,98682.94
2019-02-28T18:48:26.066Z,98683.52
2019-02-28T18:53:32.744Z,98684.41
2019-02-28T18:58:41.106Z,98664.76
2019-02-28T19:03:48.552Z,98675.34
2019-02-28T19:08:55.072Z,98679.08
2019-02-28T19:14:02.304Z,98675.19
2019-02-28T19:19:09.401Z,98678.78
2019-02-28T19:24:25.161Z,98686.64
2019-02-28T19:29:31.564Z,98678.06
2019-02-28T19:34:38.570Z,98683.31
2019-02-28T19:39:44.294Z,98680.41
2019-02-28T19:44:53.565Z,98679.48
2019-02-28T19:49:59.840Z,98680.64
2019-02-28T19:55:12.674Z,98680.20
2019-02-28T20:00:22.088Z,98688.95
2019-02-28T20:05:29.819Z,98687.63
2019-02-28T20:10:39.483Z,98684.30
2019-02-28T20:15:47.024Z,98697.55
2019-02-28T20:20:53.995Z,98684.80
2019-02-28T20:26:04.399Z,98686.16
2019-02-28T20:31:10.604Z,98696.91
2019-02-28T20:36:18.947Z,98699.59
2019-02-28T20:41:29.895Z,98707.46
2019-02-28T20:46:37.455Z,98714.03
2019-02-28T20:51:54.765Z,98717.16
2019-02-28T20:56:55.910Z,98725.15
2019-02-28T21:02:04.997Z,98733.71
2019-02-28T21:07:13.928Z,98731.14
2019-02-28T21:12:23.146Z,98732.73
2019-02-28T21:17:30.039Z,98738.88
2019-02-28T21:22:36.729Z,98731.79
2019-02-28T21:27:44.383Z,98735.06
2019-02-28T21:32:50.612Z,98726.52
2019-02-28T21:37:58.570Z,98728.34
2019-02-28T21:43:07.097Z,98729.72
2019-02-28T21:48:12.622Z,98723.70
2019-02-28T21:53:18.254Z,98715.47
2019-02-28T21:58:24.317Z,98716.05
2019-02-28T22:03:29.952Z,98697.16
2019-02-28T22:08:35.515Z,98694.21
2019-02-28T22:13:41.137Z,98689.58
2019-02-28T22:18:46.781Z,98686.06
2019-02-28T22:23:52.371Z,98691.23
2019-02-28T22:28:57.996Z,98685.57
2019-02-28T22:34:13.915Z,98685.06
2019-02-28T22:39:19.898Z,98684.98
2019-02-28T22:44:25.481Z,98684.48
2019-02-28T22:49:31.172Z,98698.08
2019-02-28T22:54:37.918Z,98698.78
2019-02-28T22:59:44.128Z,98698.56
2019-02-28T23:04:50.003Z,98701.78
2019-02-28T23:09:55.438Z,98693.27
2019-02-28T23:15:00.954Z,98684.35
2019-02-28T23:20:07.187Z,98682.00
2019-02-28T23:25:12.869Z,98689.16
2019-02-28T23:30:32.473Z,98687.31
2019-02-28T23:35:41.104Z,98678.05
2019-02-28T23:40:47.714Z,98669.15
2019-02-28T23:45:54.428Z,98667.79
2019-02-28T23:51:29.651Z,98661.50
2019-02-28T23:56:35.733Z,98670.86
